sensor_id;sensor_type;location;lat;lon;timestamp;pressure;altitude;pressure_sealevel;temperature;humidity
59831;BME280;45711;50.108;13.712;2022-09-09T00:02:05;97599.88;;;13.23;91.04
59831;BME280;45711;50.108;13.712;2022-09-09T00:04:37;97596.59;;;13.26;90.95
59831;BME280;45711;50.108;13.712;2022-09-09T00:07:06;97604.97;;;13.24;91.45
59831;BME280;45711;50.108;13.712;2022-09-09T00:09:43;97602.09;;;13.43;91.58
59831;BME280;45711;50.108;13.712;2022-09-09T00:12:13;97601.69;;;13.50;90.55
59831;BME280;45711;50.108;13.712;2022-09-09T00:14:47;97598.94;;;13.41;90.34
59831;BME280;45711;50.108;13.712;2022-09-09T00:17:21;97597.97;;;13.23;91.16
59831;BME280;45711;50.108;13.712;2022-09-09T00:19:54;97601.91;;;13.40;90.53
59831;BME280;45711;50.108;13.712;2022-09-09T00:22:23;97600.16;;;13.35;90.96
59831;BME280;45711;50.108;13.712;2022-09-09T00:24:52;97602.03;;;13.35;91.43
59831;BME280;45711;50.108;13.712;2022-09-09T00:27:26;97601.84;;;13.31;90.37
59831;BME280;45711;50.108;13.712;2022-09-09T00:29:58;97606.94;;;13.32;89.99
59831;BME280;45711;50.108;13.712;2022-09-09T00:32:29;97600.47;;;13.33;91.58
59831;BME280;45711;50.108;13.712;2022-09-09T00:35:00;97604.53;;;13.31;91.70
59831;BME280;45711;50.108;13.712;2022-09-09T00:37:28;97603.16;;;13.33;91.35
59831;BME280;45711;50.108;13.712;2022-09-09T00:40:00;97596.66;;;13.35;92.09
59831;BME280;45711;50.108;13.712;2022-09-09T00:42:36;97594.41;;;13.28;90.79
59831;BME280;45711;50.108;13.712;2022-09-09T00:45:17;97590.63;;;13.29;91.60
59831;BME280;45711;50.108;13.712;2022-09-09T00:47:46;97596.47;;;13.17;91.51
59831;BME280;45711;50.108;13.712;2022-09-09T00:50:33;97604.53;;;13.17;91.84
59831;BME280;45711;50.108;13.712;2022-09-09T00:53:09;97604.47;;;13.08;91.90
59831;BME280;45711;50.108;13.712;2022-09-09T00:55:41;97596.63;;;12.98;91.28
59831;BME280;45711;50.108;13.712;2022-09-09T00:58:09;97603.09;;;12.97;91.96
59831;BME280;45711;50.108;13.712;2022-09-09T01:00:39;97601.19;;;13.12;91.67
59831;BME280;45711;50.108;13.712;2022-09-09T01:03:19;97600.00;;;13.04;91.21
59831;BME280;45711;50.108;13.712;2022-09-09T01:05:54;97601.84;;;12.81;91.52
59831;BME280;45711;50.108;13.712;2022-09-09T01:08:38;97603.22;;;12.78;91.96
59831;BME280;45711;50.108;13.712;2022-09-09T01:11:10;97605.59;;;12.66;91.97
59831;BME280;45711;50.108;13.712;2022-09-09T01:13:41;97599.44;;;12.66;91.90
59831;BME280;45711;50.108;13.712;2022-09-09T01:16:08;97599.94;;;12.68;92.19
59831;BME280;45711;50.108;13.712;2022-09-09T01:18:40;97599.25;;;12.76;92.46
59831;BME280;45711;50.108;13.712;2022-09-09T01:21:16;97601.03;;;12.80;92.23
59831;BME280;45711;50.108;13.712;2022-09-09T01:26:36;97597.16;;;12.73;91.75
59831;BME280;45711;50.108;13.712;2022-09-09T01:29:04;97594.38;;;12.78;92.77
59831;BME280;45711;50.108;13.712;2022-09-09T01:31:36;97593.88;;;12.62;92.12
59831;BME280;45711;50.108;13.712;2022-09-09T01:34:10;97594.19;;;12.61;92.20
59831;BME280;45711;50.108;13.712;2022-09-09T01:36:40;97596.66;;;12.57;91.92
59831;BME280;45711;50.108;13.712;2022-09-09T01:39:07;97589.03;;;12.50;91.80
59831;BME280;45711;50.108;13.712;2022-09-09T01:41:34;97590.91;;;12.50;92.09
59831;BME280;45711;50.108;13.712;2022-09-09T01:44:00;97582.75;;;12.41;92.93
59831;BME280;45711;50.108;13.712;2022-09-09T01:46:28;97585.91;;;12.71;92.32
59831;BME280;45711;50.108;13.712;2022-09-09T01:51:58;97587.44;;;12.63;92.70
59831;BME280;45711;50.108;13.712;2022-09-09T01:54:26;97583.53;;;12.69;91.73
59831;BME280;45711;50.108;13.712;2022-09-09T01:57:01;97592.09;;;12.71;91.41
59831;BME280;45711;50.108;13.712;2022-09-09T01:59:45;97590.81;;;12.55;91.82
59831;BME280;45711;50.108;13.712;2022-09-09T02:02:17;97585.00;;;12.75;91.60
59831;BME280;45711;50.108;13.712;2022-09-09T02:04:44;97588.91;;;12.69;91.87
59831;BME280;45711;50.108;13.712;2022-09-09T02:07:23;97590.22;;;12.72;92.00
59831;BME280;45711;50.108;13.712;2022-09-09T02:09:57;97591.38;;;12.93;93.04
59831;BME280;45711;50.108;13.712;2022-09-09T02:12:27;97600.06;;;12.76;92.32
59831;BME280;45711;50.108;13.712;2022-09-09T02:14:57;97597.56;;;12.80;92.40
59831;BME280;45711;50.108;13.712;2022-09-09T02:17:28;97593.47;;;12.69;92.66
59831;BME280;45711;50.108;13.712;2022-09-09T02:20:01;97597.44;;;12.85;91.37
59831;BME280;45711;50.108;13.712;2022-09-09T02:22:29;97602.03;;;12.85;90.85
59831;BME280;45711;50.108;13.712;2022-09-09T02:25:00;97598.16;;;12.63;92.08
59831;BME280;45711;50.108;13.712;2022-09-09T02:27:27;97605.13;;;12.50;92.27
59831;BME280;45711;50.108;13.712;2022-09-09T02:29:54;97604.44;;;12.72;91.13
59831;BME280;45711;50.108;13.712;2022-09-09T02:32:23;97600.56;;;12.51;91.47
59831;BME280;45711;50.108;13.712;2022-09-09T02:34:53;97602.53;;;12.45;92.54
59831;BME280;45711;50.108;13.712;2022-09-09T02:37:23;97601.72;;;12.45;92.98
59831;BME280;45711;50.108;13.712;2022-09-09T02:39:50;97597.06;;;12.37;93.18
59831;BME280;45711;50.108;13.712;2022-09-09T02:42:16;97604.03;;;12.38;92.81
59831;BME280;45711;50.108;13.712;2022-09-09T02:44:43;97601.34;;;12.38;93.46
59831;BME280;45711;50.108;13.712;2022-09-09T02:47:29;97601.50;;;12.27;93.19
59831;BME280;45711;50.108;13.712;2022-09-09T02:50:05;97598.03;;;12.27;93.53
59831;BME280;45711;50.108;13.712;2022-09-09T02:52:39;97598.25;;;12.30;93.36
59831;BME280;45711;50.108;13.712;2022-09-09T02:55:14;97594.78;;;12.30;92.80
59831;BME280;45711;50.108;13.712;2022-09-09T02:57:43;97601.50;;;12.14;93.31
59831;BME280;45711;50.108;13.712;2022-09-09T03:00:14;97605.97;;;12.18;93.58
59831;BME280;45711;50.108;13.712;2022-09-09T03:02:40;97595.19;;;12.37;93.28
59831;BME280;45711;50.108;13.712;2022-09-09T03:05:07;97597.88;;;12.51;91.90
59831;BME280;45711;50.108;13.712;2022-09-09T03:07:33;97600.94;;;12.30;92.39
59831;BME280;45711;50.108;13.712;2022-09-09T03:09:58;97605.38;;;12.21;92.94
59831;BME280;45711;50.108;13.712;2022-09-09T03:12:24;97600.81;;;12.08;93.28
59831;BME280;45711;50.108;13.712;2022-09-09T03:14:50;97610.94;;;12.11;93.53
59831;BME280;45711;50.108;13.712;2022-09-09T03:17:17;97608.28;;;12.25;92.19
59831;BME280;45711;50.108;13.712;2022-09-09T03:19:42;97611.44;;;12.13;92.78
59831;BME280;45711;50.108;13.712;2022-09-09T03:22:09;97616.31;;;12.11;93.04
59831;BME280;45711;50.108;13.712;2022-09-09T03:24:35;97618.56;;;12.04;92.70
59831;BME280;45711;50.108;13.712;2022-09-09T03:27:01;97616.59;;;12.10;92.88
59831;BME280;45711;50.108;13.712;2022-09-09T03:29:26;97608.53;;;12.10;93.41
59831;BME280;45711;50.108;13.712;2022-09-09T03:31:52;97616.31;;;12.11;93.15
59831;BME280;45711;50.108;13.712;2022-09-09T03:34:19;97615.03;;;12.22;94.22
59831;BME280;45711;50.108;13.712;2022-09-09T03:36:45;97611.28;;;12.51;93.44
59831;BME280;45711;50.108;13.712;2022-09-09T03:39:10;97612.38;;;12.50;93.42
59831;BME280;45711;50.108;13.712;2022-09-09T03:41:36;97612.75;;;12.57;93.61
59831;BME280;45711;50.108;13.712;2022-09-09T03:44:02;97611.59;;;12.63;92.83
59831;BME280;45711;50.108;13.712;2022-09-09T03:46:28;97609.91;;;12.67;93.15
59831;BME280;45711;50.108;13.712;2022-09-09T03:48:54;97601.13;;;12.62;93.13
59831;BME280;45711;50.108;13.712;2022-09-09T03:51:21;97598.34;;;12.53;92.78
59831;BME280;45711;50.108;13.712;2022-09-09T03:53:47;97596.25;;;12.36;93.64
59831;BME280;45711;50.108;13.712;2022-09-09T03:56:13;97596.16;;;12.27;93.95
59831;BME280;45711;50.108;13.712;2022-09-09T03:58:38;97586.50;;;12.26;94.40
59831;BME280;45711;50.108;13.712;2022-09-09T04:01:06;97594.19;;;12.33;94.54
59831;BME280;45711;50.108;13.712;2022-09-09T04:03:33;97597.25;;;12.40;94.01
59831;BME280;45711;50.108;13.712;2022-09-09T04:06:02;97587.34;;;12.41;94.22
59831;BME280;45711;50.108;13.712;2022-09-09T04:08:30;97588.50;;;12.35;91.99
59831;BME280;45711;50.108;13.712;2022-09-09T04:10:59;97600.34;;;12.33;92.08
59831;BME280;45711;50.108;13.712;2022-09-09T04:13:27;97595.47;;;12.49;89.79
59831;BME280;45711;50.108;13.712;2022-09-09T04:15:54;97588.09;;;12.27;90.02
59831;BME280;45711;50.108;13.712;2022-09-09T04:18:20;97590.41;;;12.34;91.03
59831;BME280;45711;50.108;13.712;2022-09-09T04:20:46;97589.72;;;12.28;91.19
59831;BME280;45711;50.108;13.712;2022-09-09T04:23:13;97586.69;;;12.02;92.72
59831;BME280;45711;50.108;13.712;2022-09-09T04:25:43;97591.78;;;12.18;92.82
59831;BME280;45711;50.108;13.712;2022-09-09T04:28:10;97591.75;;;12.04;92.52
59831;BME280;45711;50.108;13.712;2022-09-09T04:30:35;97597.50;;;11.97;93.30
59831;BME280;45711;50.108;13.712;2022-09-09T04:33:01;97590.84;;;11.95;93.61
59831;BME280;45711;50.108;13.712;2022-09-09T04:35:26;97592.72;;;11.94;93.63
59831;BME280;45711;50.108;13.712;2022-09-09T04:37:52;97598.19;;;11.89;93.86
59831;BME280;45711;50.108;13.712;2022-09-09T04:40:18;97603.13;;;12.15;93.44
59831;BME280;45711;50.108;13.712;2022-09-09T04:42:45;97602.47;;;12.04;93.38
59831;BME280;45711;50.108;13.712;2022-09-09T04:45:13;97606.75;;;12.05;93.82
59831;BME280;45711;50.108;13.712;2022-09-09T04:47:39;97599.59;;;12.00;93.43
59831;BME280;45711;50.108;13.712;2022-09-09T04:50:05;97599.44;;;12.11;93.46
59831;BME280;45711;50.108;13.712;2022-09-09T04:52:31;97606.59;;;12.15;92.69
59831;BME280;45711;50.108;13.712;2022-09-09T04:54:57;97600.34;;;11.87;91.15
59831;BME280;45711;50.108;13.712;2022-09-09T04:57:22;97602.16;;;11.92;91.21
59831;BME280;45711;50.108;13.712;2022-09-09T04:59:49;97607.63;;;12.00;92.13
59831;BME280;45711;50.108;13.712;2022-09-09T05:02:15;97600.31;;;12.06;91.82
59831;BME280;45711;50.108;13.712;2022-09-09T05:04:41;97608.97;;;12.17;91.62
59831;BME280;45711;50.108;13.712;2022-09-09T05:07:06;97604.75;;;11.97;92.60
59831;BME280;45711;50.108;13.712;2022-09-09T05:09:32;97613.72;;;12.06;92.23
59831;BME280;45711;50.108;13.712;2022-09-09T05:11:57;97618.09;;;12.16;91.75
59831;BME280;45711;50.108;13.712;2022-09-09T05:14:23;97622.28;;;12.22;91.12
59831;BME280;45711;50.108;13.712;2022-09-09T05:16:50;97622.72;;;12.43;90.72
59831;BME280;45711;50.108;13.712;2022-09-09T05:19:16;97620.47;;;12.17;90.67
59831;BME280;45711;50.108;13.712;2022-09-09T05:21:44;97627.50;;;12.46;90.71
59831;BME280;45711;50.108;13.712;2022-09-09T05:24:10;97629.56;;;12.49;90.40
59831;BME280;45711;50.108;13.712;2022-09-09T05:26:36;97625.69;;;12.41;89.36
59831;BME280;45711;50.108;13.712;2022-09-09T05:29:01;97627.28;;;12.28;91.71
59831;BME280;45711;50.108;13.712;2022-09-09T05:31:30;97629.44;;;12.26;92.68
59831;BME280;45711;50.108;13.712;2022-09-09T05:33:57;97629.06;;;12.33;93.93
59831;BME280;45711;50.108;13.712;2022-09-09T05:36:24;97625.81;;;12.50;92.47
59831;BME280;45711;50.108;13.712;2022-09-09T05:38:50;97637.53;;;12.68;91.92
59831;BME280;45711;50.108;13.712;2022-09-09T05:41:16;97632.06;;;12.87;91.65
59831;BME280;45711;50.108;13.712;2022-09-09T05:43:44;97631.84;;;12.69;92.89
59831;BME280;45711;50.108;13.712;2022-09-09T05:46:12;97627.69;;;12.77;93.15
59831;BME280;45711;50.108;13.712;2022-09-09T05:48:39;97629.38;;;12.87;93.26
59831;BME280;45711;50.108;13.712;2022-09-09T05:51:09;97626.84;;;13.04;92.34
59831;BME280;45711;50.108;13.712;2022-09-09T05:53:37;97628.06;;;13.12;92.71
59831;BME280;45711;50.108;13.712;2022-09-09T05:56:04;97624.97;;;13.04;93.90
59831;BME280;45711;50.108;13.712;2022-09-09T05:58:30;97634.41;;;13.29;93.11
59831;BME280;45711;50.108;13.712;2022-09-09T06:01:04;97633.56;;;13.43;93.02
59831;BME280;45711;50.108;13.712;2022-09-09T06:03:30;97624.97;;;13.54;93.64
59831;BME280;45711;50.108;13.712;2022-09-09T06:06:00;97624.66;;;14.01;91.66
59831;BME280;45711;50.108;13.712;2022-09-09T06:08:27;97625.25;;;14.20;91.35
59831;BME280;45711;50.108;13.712;2022-09-09T06:10:53;97618.44;;;14.54;89.81
59831;BME280;45711;50.108;13.712;2022-09-09T06:13:19;97624.44;;;14.91;90.38
59831;BME280;45711;50.108;13.712;2022-09-09T06:15:49;97621.84;;;15.77;84.50
59831;BME280;45711;50.108;13.712;2022-09-09T06:18:15;97622.09;;;17.25;79.10
59831;BME280;45711;50.108;13.712;2022-09-09T06:20:59;97620.34;;;19.11;69.81
59831;BME280;45711;50.108;13.712;2022-09-09T06:23:27;97624.13;;;19.87;65.96
59831;BME280;45711;50.108;13.712;2022-09-09T06:26:01;97624.91;;;19.88;66.27
59831;BME280;45711;50.108;13.712;2022-09-09T06:28:27;97627.03;;;20.38;65.94
59831;BME280;45711;50.108;13.712;2022-09-09T06:30:57;97637.69;;;21.26;61.42
59831;BME280;45711;50.108;13.712;2022-09-09T06:33:23;97625.22;;;21.41;62.89
59831;BME280;45711;50.108;13.712;2022-09-09T06:35:51;97636.56;;;21.62;60.87
59831;BME280;45711;50.108;13.712;2022-09-09T06:38:18;97651.84;;;21.86;60.34
59831;BME280;45711;50.108;13.712;2022-09-09T06:40:51;97638.19;;;21.67;59.56
59831;BME280;45711;50.108;13.712;2022-09-09T06:43:16;97645.88;;;22.19;58.83
59831;BME280;45711;50.108;13.712;2022-09-09T06:45:42;97642.06;;;22.04;59.16
59831;BME280;45711;50.108;13.712;2022-09-09T06:48:08;97643.00;;;23.00;58.08
59831;BME280;45711;50.108;13.712;2022-09-09T06:50:34;97651.81;;;22.05;57.76
59831;BME280;45711;50.108;13.712;2022-09-09T06:53:00;97647.56;;;22.70;56.53
59831;BME280;45711;50.108;13.712;2022-09-09T06:55:25;97658.09;;;22.94;56.93
59831;BME280;45711;50.108;13.712;2022-09-09T06:57:52;97654.41;;;20.93;62.51
59831;BME280;45711;50.108;13.712;2022-09-09T07:00:18;97664.00;;;21.53;61.60
59831;BME280;45711;50.108;13.712;2022-09-09T07:02:44;97659.09;;;21.27;61.59
59831;BME280;45711;50.108;13.712;2022-09-09T07:05:10;97660.50;;;20.86;63.35
59831;BME280;45711;50.108;13.712;2022-09-09T07:07:36;97667.75;;;21.14;63.51
59831;BME280;45711;50.108;13.712;2022-09-09T07:10:02;97663.53;;;23.44;57.01
59831;BME280;45711;50.108;13.712;2022-09-09T07:12:29;97663.03;;;24.66;54.82
59831;BME280;45711;50.108;13.712;2022-09-09T07:14:56;97667.19;;;25.55;51.49
59831;BME280;45711;50.108;13.712;2022-09-09T07:17:21;97664.63;;;25.15;51.75
59831;BME280;45711;50.108;13.712;2022-09-09T07:19:47;97662.19;;;25.72;50.18
59831;BME280;45711;50.108;13.712;2022-09-09T07:22:13;97659.53;;;24.72;51.67
59831;BME280;45711;50.108;13.712;2022-09-09T07:24:39;97655.69;;;25.28;51.63
59831;BME280;45711;50.108;13.712;2022-09-09T07:27:05;97654.34;;;24.56;53.14
59831;BME280;45711;50.108;13.712;2022-09-09T07:29:31;97663.59;;;26.17;50.79
59831;BME280;45711;50.108;13.712;2022-09-09T07:31:57;97666.81;;;27.48;46.10
59831;BME280;45711;50.108;13.712;2022-09-09T07:34:24;97662.03;;;26.27;49.01
59831;BME280;45711;50.108;13.712;2022-09-09T07:36:49;97654.69;;;23.84;53.25
59831;BME280;45711;50.108;13.712;2022-09-09T07:39:15;97653.75;;;21.47;59.10
59831;BME280;45711;50.108;13.712;2022-09-09T07:41:43;97656.66;;;21.22;60.83
59831;BME280;45711;50.108;13.712;2022-09-09T07:44:11;97649.00;;;20.77;64.69
59831;BME280;45711;50.108;13.712;2022-09-09T07:46:38;97641.44;;;20.70;64.99
59831;BME280;45711;50.108;13.712;2022-09-09T07:49:06;97644.72;;;20.32;64.62
59831;BME280;45711;50.108;13.712;2022-09-09T07:51:34;97647.84;;;20.18;65.02
59831;BME280;45711;50.108;13.712;2022-09-09T07:54:01;97657.16;;;22.18;60.87
59831;BME280;45711;50.108;13.712;2022-09-09T07:56:28;97661.53;;;25.93;50.82
59831;BME280;45711;50.108;13.712;2022-09-09T07:58:55;97662.56;;;27.04;46.81
59831;BME280;45711;50.108;13.712;2022-09-09T08:01:23;97649.88;;;27.60;44.52
59831;BME280;45711;50.108;13.712;2022-09-09T08:03:54;97667.81;;;25.93;46.97
59831;BME280;45711;50.108;13.712;2022-09-09T08:06:21;97665.13;;;25.31;48.35
59831;BME280;45711;50.108;13.712;2022-09-09T08:08:50;97661.59;;;25.30;49.51
59831;BME280;45711;50.108;13.712;2022-09-09T08:11:16;97669.72;;;25.86;47.77
59831;BME280;45711;50.108;13.712;2022-09-09T08:13:43;97671.91;;;27.46;45.60
59831;BME280;45711;50.108;13.712;2022-09-09T08:16:11;97678.63;;;26.88;46.27
59831;BME280;45711;50.108;13.712;2022-09-09T08:18:37;97671.19;;;26.92;46.95
59831;BME280;45711;50.108;13.712;2022-09-09T08:21:08;97675.81;;;27.59;43.22
59831;BME280;45711;50.108;13.712;2022-09-09T08:23:36;97673.91;;;27.02;44.83
59831;BME280;45711;50.108;13.712;2022-09-09T08:26:06;97675.88;;;27.16;46.06
59831;BME280;45711;50.108;13.712;2022-09-09T08:28:32;97683.63;;;28.66;42.92
59831;BME280;45711;50.108;13.712;2022-09-09T08:31:06;97682.09;;;28.58;43.13
59831;BME280;45711;50.108;13.712;2022-09-09T08:33:32;97670.56;;;28.08;43.78
59831;BME280;45711;50.108;13.712;2022-09-09T08:35:58;97669.84;;;27.93;45.30
59831;BME280;45711;50.108;13.712;2022-09-09T08:38:24;97670.66;;;26.32;46.61
59831;BME280;45711;50.108;13.712;2022-09-09T08:40:53;97665.69;;;25.06;49.22
59831;BME280;45711;50.108;13.712;2022-09-09T08:43:28;97670.69;;;25.49;48.32
59831;BME280;45711;50.108;13.712;2022-09-09T08:46:00;97667.81;;;24.79;49.91
59831;BME280;45711;50.108;13.712;2022-09-09T08:48:41;97655.94;;;23.03;54.49
59831;BME280;45711;50.108;13.712;2022-09-09T08:51:09;97662.34;;;22.07;57.48
59831;BME280;45711;50.108;13.712;2022-09-09T08:53:39;97665.47;;;23.17;55.76
59831;BME280;45711;50.108;13.712;2022-09-09T08:56:12;97669.16;;;23.58;54.05
59831;BME280;45711;50.108;13.712;2022-09-09T08:58:43;97655.09;;;23.82;53.41
59831;BME280;45711;50.108;13.712;2022-09-09T09:01:39;97667.03;;;23.18;55.40
59831;BME280;45711;50.108;13.712;2022-09-09T09:04:14;97665.59;;;23.80;54.46
59831;BME280;45711;50.108;13.712;2022-09-09T09:06:53;97664.34;;;24.82;50.80
59831;BME280;45711;50.108;13.712;2022-09-09T09:09:25;97654.09;;;23.98;52.21
59831;BME280;45711;50.108;13.712;2022-09-09T09:11:56;97654.31;;;23.86;54.35
59831;BME280;45711;50.108;13.712;2022-09-09T09:14:27;97657.94;;;24.27;52.52
59831;BME280;45711;50.108;13.712;2022-09-09T09:19:20;97643.81;;;24.21;53.89
59831;BME280;45711;50.108;13.712;2022-09-09T09:21:55;97642.03;;;23.12;55.67
59831;BME280;45711;50.108;13.712;2022-09-09T09:24:28;97642.59;;;24.52;52.08
59831;BME280;45711;50.108;13.712;2022-09-09T09:27:11;97644.28;;;23.93;52.73
59831;BME280;45711;50.108;13.712;2022-09-09T09:29:38;97645.53;;;24.37;50.97
59831;BME280;45711;50.108;13.712;2022-09-09T09:32:07;97644.81;;;24.06;52.87
59831;BME280;45711;50.108;13.712;2022-09-09T09:34:35;97645.97;;;24.05;50.12
59831;BME280;45711;50.108;13.712;2022-09-09T09:37:01;97640.81;;;22.87;55.29
59831;BME280;45711;50.108;13.712;2022-09-09T09:39:28;97643.72;;;22.09;57.97
59831;BME280;45711;50.108;13.712;2022-09-09T09:41:54;97642.91;;;23.76;50.33
59831;BME280;45711;50.108;13.712;2022-09-09T09:44:27;97644.22;;;23.90;49.52
59831;BME280;45711;50.108;13.712;2022-09-09T09:46:53;97635.56;;;23.54;53.74
59831;BME280;45711;50.108;13.712;2022-09-09T09:49:18;97630.56;;;23.90;52.03
59831;BME280;45711;50.108;13.712;2022-09-09T09:51:44;97632.34;;;22.69;56.01
59831;BME280;45711;50.108;13.712;2022-09-09T09:54:27;97632.44;;;23.82;52.50
59831;BME280;45711;50.108;13.712;2022-09-09T09:56:54;97629.13;;;23.66;51.68
59831;BME280;45711;50.108;13.712;2022-09-09T09:59:22;97631.44;;;23.97;50.03
59831;BME280;45711;50.108;13.712;2022-09-09T10:01:49;97636.41;;;23.58;50.64
59831;BME280;45711;50.108;13.712;2022-09-09T10:04:17;97620.84;;;23.92;49.91
59831;BME280;45711;50.108;13.712;2022-09-09T10:06:44;97626.63;;;24.24;49.40
59831;BME280;45711;50.108;13.712;2022-09-09T10:09:21;97621.47;;;24.16;50.74
59831;BME280;45711;50.108;13.712;2022-09-09T10:11:55;97616.59;;;23.95;52.30
59831;BME280;45711;50.108;13.712;2022-09-09T10:14:29;97616.84;;;24.20;51.59
59831;BME280;45711;50.108;13.712;2022-09-09T10:17:08;97616.09;;;24.23;48.91
59831;BME280;45711;50.108;13.712;2022-09-09T10:19:37;97614.00;;;23.75;49.93
59831;BME280;45711;50.108;13.712;2022-09-09T10:22:19;97614.97;;;23.60;50.30
59831;BME280;45711;50.108;13.712;2022-09-09T10:27:52;97616.84;;;22.07;57.24
59831;BME280;45711;50.108;13.712;2022-09-09T10:30:23;97609.25;;;22.17;52.45
59831;BME280;45711;50.108;13.712;2022-09-09T10:32:56;97602.19;;;22.84;53.22
59831;BME280;45711;50.108;13.712;2022-09-09T10:35:30;97607.19;;;22.33;56.33
59831;BME280;45711;50.108;13.712;2022-09-09T10:38:13;97606.38;;;23.01;54.06
59831;BME280;45711;50.108;13.712;2022-09-09T10:40:44;97600.75;;;22.68;55.94
59831;BME280;45711;50.108;13.712;2022-09-09T10:43:27;97602.53;;;22.56;55.62
59831;BME280;45711;50.108;13.712;2022-09-09T10:46:01;97593.78;;;22.93;53.08
59831;BME280;45711;50.108;13.712;2022-09-09T10:48:41;97595.56;;;23.08;52.80
59831;BME280;45711;50.108;13.712;2022-09-09T10:51:22;97602.72;;;22.44;55.90
59831;BME280;45711;50.108;13.712;2022-09-09T10:53:57;97602.50;;;22.79;54.75
59831;BME280;45711;50.108;13.712;2022-09-09T10:56:28;97609.16;;;22.55;53.13
59831;BME280;45711;50.108;13.712;2022-09-09T10:58:59;97606.88;;;21.96;56.38
59831;BME280;45711;50.108;13.712;2022-09-09T11:01:31;97598.22;;;22.32;56.84
59831;BME280;45711;50.108;13.712;2022-09-09T11:04:02;97599.97;;;22.67;52.70
59831;BME280;45711;50.108;13.712;2022-09-09T11:06:35;97608.56;;;22.23;56.18
59831;BME280;45711;50.108;13.712;2022-09-09T11:09:03;97605.19;;;22.11;57.66
59831;BME280;45711;50.108;13.712;2022-09-09T11:11:34;97607.63;;;21.73;59.04
59831;BME280;45711;50.108;13.712;2022-09-09T11:14:09;97610.97;;;21.86;56.82
59831;BME280;45711;50.108;13.712;2022-09-09T11:16:40;97623.22;;;21.22;61.22
59831;BME280;45711;50.108;13.712;2022-09-09T11:19:15;97619.06;;;22.02;56.03
59831;BME280;45711;50.108;13.712;2022-09-09T11:21:46;97622.66;;;21.67;57.31
59831;BME280;45711;50.108;13.712;2022-09-09T11:24:16;97615.63;;;21.47;59.95
59831;BME280;45711;50.108;13.712;2022-09-09T11:26:47;97618.84;;;21.72;59.36
59831;BME280;45711;50.108;13.712;2022-09-09T11:29:29;97614.78;;;21.81;56.85
59831;BME280;45711;50.108;13.712;2022-09-09T11:32:09;97612.69;;;21.75;58.82
59831;BME280;45711;50.108;13.712;2022-09-09T11:34:47;97608.81;;;21.95;58.41
59831;BME280;45711;50.108;13.712;2022-09-09T11:37:34;97611.06;;;21.51;60.23
59831;BME280;45711;50.108;13.712;2022-09-09T11:40:19;97611.75;;;21.67;60.10
59831;BME280;45711;50.108;13.712;2022-09-09T11:42:45;97615.22;;;21.64;60.28
59831;BME280;45711;50.108;13.712;2022-09-09T11:45:21;97616.19;;;21.75;56.69
59831;BME280;45711;50.108;13.712;2022-09-09T11:47:52;97612.06;;;22.43;52.15
59831;BME280;45711;50.108;13.712;2022-09-09T11:50:30;97605.34;;;21.98;58.64
59831;BME280;45711;50.108;13.712;2022-09-09T11:53:06;97599.75;;;22.53;54.91
59831;BME280;45711;50.108;13.712;2022-09-09T11:55:40;97593.47;;;22.75;56.78
59831;BME280;45711;50.108;13.712;2022-09-09T11:58:15;97588.22;;;22.17;58.22
59831;BME280;45711;50.108;13.712;2022-09-09T12:00:44;97596.16;;;22.49;57.71
59831;BME280;45711;50.108;13.712;2022-09-09T12:03:34;97604.94;;;22.62;57.44
59831;BME280;45711;50.108;13.712;2022-09-09T12:06:17;97607.19;;;22.56;51.90
59831;BME280;45711;50.108;13.712;2022-09-09T12:08:48;97609.78;;;22.49;51.92
59831;BME280;45711;50.108;13.712;2022-09-09T12:11:24;97612.22;;;22.31;56.93
59831;BME280;45711;50.108;13.712;2022-09-09T12:13:53;97614.97;;;21.92;54.67
59831;BME280;45711;50.108;13.712;2022-09-09T12:16:29;97612.84;;;22.44;56.35
59831;BME280;45711;50.108;13.712;2022-09-09T12:19:03;97607.56;;;22.31;56.44
59831;BME280;45711;50.108;13.712;2022-09-09T12:21:34;97612.50;;;21.64;54.25
59831;BME280;45711;50.108;13.712;2022-09-09T12:24:06;97607.19;;;21.52;56.65
59831;BME280;45711;50.108;13.712;2022-09-09T12:26:37;97604.47;;;21.91;51.83
59831;BME280;45711;50.108;13.712;2022-09-09T12:29:14;97604.44;;;21.71;56.86
59831;BME280;45711;50.108;13.712;2022-09-09T12:31:47;97606.25;;;21.28;60.83
59831;BME280;45711;50.108;13.712;2022-09-09T12:34:26;97596.63;;;21.15;60.37
59831;BME280;45711;50.108;13.712;2022-09-09T12:36:58;97595.56;;;21.20;60.13
59831;BME280;45711;50.108;13.712;2022-09-09T12:39:30;97591.16;;;21.31;56.64
59831;BME280;45711;50.108;13.712;2022-09-09T12:41:58;97589.34;;;21.74;53.92
59831;BME280;45711;50.108;13.712;2022-09-09T12:44:24;97580.25;;;22.08;52.63
59831;BME280;45711;50.108;13.712;2022-09-09T12:46:51;97577.56;;;21.89;55.05
59831;BME280;45711;50.108;13.712;2022-09-09T12:49:28;97576.06;;;21.92;56.59
59831;BME280;45711;50.108;13.712;2022-09-09T12:51:57;97565.66;;;22.17;58.55
59831;BME280;45711;50.108;13.712;2022-09-09T12:54:24;97557.72;;;21.89;58.59
59831;BME280;45711;50.108;13.712;2022-09-09T12:56:52;97553.72;;;22.05;56.67
59831;BME280;45711;50.108;13.712;2022-09-09T12:59:23;97550.09;;;21.98;55.19
59831;BME280;45711;50.108;13.712;2022-09-09T13:01:55;97548.56;;;22.43;56.30
59831;BME280;45711;50.108;13.712;2022-09-09T13:04:21;97545.19;;;22.07;58.32
59831;BME280;45711;50.108;13.712;2022-09-09T13:06:49;97549.22;;;21.51;60.88
59831;BME280;45711;50.108;13.712;2022-09-09T13:09:16;97549.66;;;21.73;56.67
59831;BME280;45711;50.108;13.712;2022-09-09T13:11:44;97546.88;;;21.92;57.58
59831;BME280;45711;50.108;13.712;2022-09-09T13:14:17;97544.56;;;22.14;58.49
59831;BME280;45711;50.108;13.712;2022-09-09T13:16:54;97534.03;;;22.12;57.37